Time;durP1;ratioP1;P1;durP2;ratioP2;P2;SDS_P1;SDS_P2;PMS_P1;PMS_P2;Temp;Humidity;BMP_temperature;BMP_pressure;BME280_temperature;BME280_humidity;BME280_pressure;Samples;Min_cycle;Max_cycle;Signal;HPM_P1;HPM_P2
2022/11/11 00:02:11;;;;;;;19.25;3.10;;;;;;;;;;5032460;28;20045;-63
2022/11/11 00:04:59;;;;;;;7.05;2.17;;;;;;;;;;5033346;28;20042;-62
2022/11/11 00:07:48;;;;;;;12.18;3.00;;;;;;;;;;5033167;28;20497;-63
2022/11/11 00:10:36;;;;;;;9.88;2.88;;;;;;;;;;5017311;28;20505;-63
2022/11/11 00:13:25;;;;;;;13.23;2.80;;;;;;;;;;5003203;28;20049;-63
2022/11/11 00:16:18;;;;;;;8.50;2.83;;;;;;;;;;5032995;28;20050;-63
2022/11/11 00:25:30;;;;;;;6.53;2.33;;;;;;;;;;5003133;28;20412;-63
2022/11/11 00:28:19;;;;;;;8.15;2.47;;;;;;;;;;5032765;28;20054;-63
2022/11/11 00:31:10;;;;;;;13.93;3.45;;;;;;;;;;5016993;28;20049;-63
2022/11/11 00:33:58;;;;;;;14.85;3.10;;;;;;;;;;5033241;28;20401;-63
2022/11/11 00:36:47;;;;;;;14.73;3.20;;;;;;;;;;5032756;28;20049;-63
2022/11/11 00:39:36;;;;;;;24.20;3.05;;;;;;;;;;5032521;28;20049;-63
2022/11/11 00:42:25;;;;;;;13.00;3.08;;;;;;;;;;5032516;28;20053;-62
2022/11/11 00:45:13;;;;;;;10.38;2.80;;;;;;;;;;5032771;28;20041;-62
2022/11/11 00:51:10;;;;;;;8.18;2.67;;;;;;;;;;5002449;28;20053;-63
2022/11/11 00:53:58;;;;;;;11.18;2.75;;;;;;;;;;5032527;28;20498;-63
2022/11/11 00:56:46;;;;;;;7.22;2.40;;;;;;;;;;5032304;28;20497;-63
2022/11/11 00:59:35;;;;;;;8.95;2.75;;;;;;;;;;5032219;28;20046;-63
2022/11/11 01:02:23;;;;;;;8.23;2.47;;;;;;;;;;5032358;28;20045;-63
2022/11/11 01:05:12;;;;;;;7.63;2.95;;;;;;;;;;5016021;28;20409;-63
2022/11/11 01:08:00;;;;;;;13.32;3.65;;;;;;;;;;5015975;28;20413;-63
2022/11/11 01:10:49;;;;;;;18.05;2.78;;;;;;;;;;5016021;28;20509;-63
2022/11/11 01:13:38;;;;;;;13.90;3.20;;;;;;;;;;5001244;28;20049;-63
2022/11/11 01:16:27;;;;;;;17.17;3.05;;;;;;;;;;5029206;28;20077;-62
2022/11/11 01:19:15;;;;;;;11.10;3.30;;;;;;;;;;5029717;28;20089;-63
2022/11/11 01:22:04;;;;;;;15.63;3.03;;;;;;;;;;5001289;28;20049;-62
2022/11/11 01:24:52;;;;;;;15.43;2.83;;;;;;;;;;5029571;28;20058;-63
2022/11/11 01:27:41;;;;;;;16.05;3.42;;;;;;;;;;5029586;28;20061;-63
2022/11/11 01:30:32;;;;;;;13.65;2.70;;;;;;;;;;5015069;28;20062;-63
2022/11/11 01:33:20;;;;;;;10.55;2.85;;;;;;;;;;5029441;28;20045;-63
2022/11/11 01:36:12;;;;;;;12.30;3.38;;;;;;;;;;5029222;28;20053;-63
2022/11/11 01:39:02;;;;;;;14.57;3.75;;;;;;;;;;5029488;28;20053;-62
2022/11/11 01:41:50;;;;;;;16.35;3.30;;;;;;;;;;5018688;28;20041;-62
2022/11/11 01:44:47;;;;;;;12.27;2.63;;;;;;;;;;5005820;28;20087;-64
2022/11/11 01:51:19;;;;;;;16.73;3.10;;;;;;;;;;5033787;28;20049;-63
2022/11/11 01:54:30;;;;;;;10.95;3.25;;;;;;;;;;5033188;28;20628;-63
2022/11/11 01:57:21;;;;;;;10.43;2.60;;;;;;;;;;4993451;28;20050;-63
2022/11/11 02:00:13;;;;;;;11.35;3.17;;;;;;;;;;4993063;28;20058;-62
2022/11/11 02:03:10;;;;;;;15.57;2.92;;;;;;;;;;4993352;28;20091;-63
2022/11/11 02:05:59;;;;;;;13.57;2.63;;;;;;;;;;5007443;28;20503;-62
2022/11/11 02:08:48;;;;;;;6.35;2.55;;;;;;;;;;4993321;28;20055;-63
2022/11/11 02:14:49;;;;;;;7.85;2.35;;;;;;;;;;4993919;28;20050;-62
2022/11/11 02:17:38;;;;;;;7.55;2.40;;;;;;;;;;4993478;28;20050;-62
2022/11/11 02:20:29;;;;;;;18.27;3.08;;;;;;;;;;4954580;28;20051;-62
2022/11/11 02:23:43;;;;;;;15.65;2.90;;;;;;;;;;4954762;28;20059;-63
2022/11/11 02:26:35;;;;;;;11.80;2.58;;;;;;;;;;4959844;28;20046;-62
2022/11/11 02:29:25;;;;;;;9.85;2.90;;;;;;;;;;4946773;28;20047;-62
2022/11/11 02:32:13;;;;;;;12.45;3.28;;;;;;;;;;4973846;28;20055;-62
2022/11/11 02:35:11;;;;;;;18.80;2.88;;;;;;;;;;4989995;28;20047;-62
2022/11/11 02:38:07;;;;;;;10.70;2.50;;;;;;;;;;4993196;28;20062;-62
2022/11/11 02:44:02;;;;;;;11.07;3.20;;;;;;;;;;4951735;28;20066;-63
2022/11/11 02:46:51;;;;;;;12.02;3.10;;;;;;;;;;4993029;28;20121;-62
2022/11/11 02:49:40;;;;;;;11.93;2.60;;;;;;;;;;5012527;28;20054;-62
2022/11/11 02:52:29;;;;;;;17.77;2.88;;;;;;;;;;5012057;28;20054;-62
2022/11/11 02:55:17;;;;;;;12.95;2.65;;;;;;;;;;5012523;28;20057;-62
2022/11/11 02:58:06;;;;;;;11.15;3.00;;;;;;;;;;5012809;28;20058;-62
2022/11/11 03:00:55;;;;;;;11.27;3.33;;;;;;;;;;5012334;28;20558;-63
2022/11/11 03:03:43;;;;;;;12.00;3.10;;;;;;;;;;5012178;28;20053;-63
2022/11/11 03:06:32;;;;;;;16.77;2.80;;;;;;;;;;4970541;28;20081;-63
2022/11/11 03:09:20;;;;;;;13.27;2.80;;;;;;;;;;5012234;28;20049;-63
2022/11/11 03:12:09;;;;;;;9.15;2.60;;;;;;;;;;5012303;28;20049;-62
2022/11/11 03:14:58;;;;;;;11.52;3.20;;;;;;;;;;4984005;28;20058;-64
2022/11/11 03:17:46;;;;;;;10.10;2.25;;;;;;;;;;5012189;28;20046;-63
2022/11/11 03:23:42;;;;;;;8.90;2.80;;;;;;;;;;4984012;28;20414;-63
2022/11/11 03:26:31;;;;;;;12.13;2.88;;;;;;;;;;5018647;28;20050;-64
2022/11/11 03:29:19;;;;;;;7.22;2.53;;;;;;;;;;5033955;28;20042;-62
2022/11/11 03:32:08;;;;;;;12.52;2.65;;;;;;;;;;5034093;28;20049;-63
2022/11/11 03:34:57;;;;;;;7.22;2.50;;;;;;;;;;5033454;28;20541;-63
2022/11/11 03:40:55;;;;;;;13.48;2.65;;;;;;;;;;5003964;28;20049;-63
2022/11/11 03:43:44;;;;;;;12.65;2.55;;;;;;;;;;5017619;28;20049;-62
2022/11/11 03:46:32;;;;;;;13.07;3.10;;;;;;;;;;5033584;28;20045;-62
2022/11/11 03:49:21;;;;;;;10.00;2.42;;;;;;;;;;5033611;28;20493;-63
2022/11/11 03:52:09;;;;;;;10.93;2.50;;;;;;;;;;5033721;28;20429;-62
2022/11/11 03:54:58;;;;;;;10.70;2.58;;;;;;;;;;5033821;28;20050;-62
2022/11/11 03:57:47;;;;;;;10.15;2.75;;;;;;;;;;5032220;28;20049;-63
2022/11/11 04:00:36;;;;;;;7.55;2.42;;;;;;;;;;5033449;28;20053;-63
2022/11/11 04:16:05;;;;;;;6.57;2.40;;;;;;;;;;5033115;28;20049;-62
2022/11/11 04:22:00;;;;;;;8.35;2.50;;;;;;;;;;5003228;28;20057;-63
2022/11/11 04:31:07;;;;;;;9.20;2.63;;;;;;;;;;5010494;28;20062;-63
2022/11/11 04:33:56;;;;;;;7.57;2.50;;;;;;;;;;5010663;28;20046;-63
2022/11/11 04:36:44;;;;;;;10.20;2.75;;;;;;;;;;5010088;28;20054;-63
2022/11/11 04:42:39;;;;;;;6.72;2.35;;;;;;;;;;4982586;28;20050;-63
2022/11/11 04:45:31;;;;;;;7.82;2.30;;;;;;;;;;5010536;28;20406;-62
2022/11/11 04:48:19;;;;;;;;;;;;;;;;;;4972110;28;20055;-63
2022/11/11 04:51:08;;;;;;;6.30;3.03;;;;;;;;;;4971381;28;19922;-63
2022/11/11 04:53:56;;;;;;;8.45;2.53;;;;;;;;;;4984357;28;20050;-63
2022/11/11 04:56:49;;;;;;;6.57;2.63;;;;;;;;;;4971390;28;20499;-63
2022/11/11 04:59:37;;;;;;;6.78;2.65;;;;;;;;;;4971105;28;20054;-62
2022/11/11 05:08:55;;;;;;;7.35;2.40;;;;;;;;;;4912404;29;20052;-63
2022/11/11 05:11:43;;;;;;;6.13;2.67;;;;;;;;;;4932634;29;20059;-62
2022/11/11 05:27:03;;;;;;;8.32;2.65;;;;;;;;;;4990272;28;20046;-63
2022/11/11 05:29:51;;;;;;;11.10;2.65;;;;;;;;;;4990359;28;20047;-63
2022/11/11 05:32:40;;;;;;;8.50;2.63;;;;;;;;;;4990119;28;20059;-63
2022/11/11 05:35:29;;;;;;;7.13;2.90;;;;;;;;;;4990289;28;20047;-63
2022/11/11 05:38:20;;;;;;;12.13;3.05;;;;;;;;;;4989939;28;20058;-63
2022/11/11 05:41:08;;;;;;;;;;;;;;;;;;4990527;28;20054;-63
2022/11/11 05:43:57;;;;;;;6.53;2.58;;;;;;;;;;4989953;28;20291;-62
2022/11/11 05:46:45;;;;;;;9.38;2.65;;;;;;;;;;5028655;28;20057;-63
2022/11/11 05:49:34;;;;;;;9.95;2.63;;;;;;;;;;5029353;28;20042;-63
2022/11/11 05:52:23;;;;;;;6.30;2.50;;;;;;;;;;4996655;28;20057;-63
2022/11/11 05:55:12;;;;;;;8.95;2.53;;;;;;;;;;5031729;28;20685;-62
2022/11/11 05:58:00;;;;;;;9.10;2.97;;;;;;;;;;5031755;28;20388;-62
2022/11/11 06:00:48;;;;;;;6.68;2.60;;;;;;;;;;5002009;28;20053;-62
2022/11/11 06:03:37;;;;;;;10.75;3.60;;;;;;;;;;5031963;28;20049;-62
2022/11/11 06:06:26;;;;;;;7.88;2.53;;;;;;;;;;5031512;28;20053;-62
2022/11/11 06:09:14;;;;;;;8.75;2.55;;;;;;;;;;5031817;28;20053;-62
2022/11/11 06:12:03;;;;;;;7.10;2.53;;;;;;;;;;5015476;28;20050;-63
2022/11/11 06:14:51;;;;;;;9.30;2.72;;;;;;;;;;5031351;28;20045;-63
2022/11/11 06:17:40;;;;;;;7.30;2.63;;;;;;;;;;5031456;28;20054;-63
2022/11/11 06:20:29;;;;;;;6.65;2.88;;;;;;;;;;5031137;28;20046;-63
2022/11/11 06:23:18;;;;;;;6.53;3.03;;;;;;;;;;5001698;28;20505;-62
2022/11/11 06:26:12;;;;;;;5.65;2.50;;;;;;;;;;5031520;28;20049;-62
2022/11/11 06:29:03;;;;;;;4.45;2.30;;;;;;;;;;5035204;28;20046;-63
2022/11/11 06:31:51;;;;;;;7.95;2.90;;;;;;;;;;5034905;28;20049;-63
2022/11/11 06:34:40;;;;;;;10.10;2.60;;;;;;;;;;5019154;28;20050;-63
2022/11/11 06:37:28;;;;;;;5.45;2.60;;;;;;;;;;5035227;28;20049;-63
2022/11/11 06:40:17;;;;;;;6.03;2.53;;;;;;;;;;5018609;28;20058;-62
2022/11/11 06:43:09;;;;;;;6.78;2.72;;;;;;;;;;5004918;28;20053;-63
2022/11/11 06:45:58;;;;;;;8.38;2.67;;;;;;;;;;5052335;28;20065;-63
2022/11/11 06:48:46;;;;;;;7.75;2.75;;;;;;;;;;5051996;28;20049;-63
2022/11/11 06:51:35;;;;;;;7.45;3.15;;;;;;;;;;5052345;28;20097;-63
2022/11/11 06:54:23;;;;;;;9.30;2.97;;;;;;;;;;5065656;28;20045;-62
2022/11/11 06:57:12;;;;;;;7.68;2.78;;;;;;;;;;5023667;28;20100;-62
2022/11/11 07:00:00;;;;;;;5.32;2.80;;;;;;;;;;5051991;28;20057;-62
2022/11/11 07:02:55;;;;;;;8.32;2.50;;;;;;;;;;5052352;28;20052;-63
2022/11/11 07:05:44;;;;;;;7.45;2.45;;;;;;;;;;5052050;28;20053;-63
2022/11/11 07:08:33;;;;;;;5.57;2.83;;;;;;;;;;5037364;28;20049;-62
2022/11/11 07:11:21;;;;;;;6.22;2.58;;;;;;;;;;5052040;28;20060;-63
2022/11/11 07:14:10;;;;;;;5.28;2.72;;;;;;;;;;5023351;28;20505;-63
2022/11/11 07:16:58;;;;;;;6.68;2.60;;;;;;;;;;5037805;28;20057;-63
2022/11/11 07:19:52;;;;;;;6.05;2.78;;;;;;;;;;5052113;28;20088;-62
2022/11/11 07:22:40;;;;;;;7.10;2.70;;;;;;;;;;5046927;28;20057;-62
2022/11/11 07:25:29;;;;;;;5.03;2.55;;;;;;;;;;5004365;28;20053;-63
2022/11/11 07:28:18;;;;;;;8.73;2.53;;;;;;;;;;5032616;28;20049;-62
2022/11/11 07:31:07;;;;;;;7.15;3.20;;;;;;;;;;5034080;28;20424;-64
2022/11/11 07:33:55;;;;;;;8.02;3.08;;;;;;;;;;5032053;28;20045;-62
2022/11/11 07:36:44;;;;;;;8.18;3.00;;;;;;;;;;5018345;28;20062;-63
2022/11/11 07:39:33;;;;;;;8.55;2.72;;;;;;;;;;5032956;28;20049;-63
2022/11/11 07:42:21;;;;;;;10.65;2.92;;;;;;;;;;5033700;28;20046;-63
2022/11/11 07:45:18;;;;;;;5.55;2.65;;;;;;;;;;5033680;28;20050;-62
2022/11/11 07:48:06;;;;;;;5.63;2.30;;;;;;;;;;5045345;28;20054;-63
2022/11/11 07:50:55;;;;;;;6.03;2.60;;;;;;;;;;5017568;28;20508;-63
2022/11/11 07:53:44;;;;;;;7.47;2.83;;;;;;;;;;5032600;28;20053;-62
2022/11/11 07:56:32;;;;;;;5.22;2.50;;;;;;;;;;5033571;28;20053;-63
2022/11/11 07:59:21;;;;;;;5.57;3.00;;;;;;;;;;5033697;28;20049;-62
2022/11/11 08:02:13;;;;;;;6.32;2.85;;;;;;;;;;5033348;28;20049;-63
2022/11/11 08:05:02;;;;;;;8.27;2.67;;;;;;;;;;5017259;28;20046;-63
2022/11/11 08:07:50;;;;;;;8.65;3.30;;;;;;;;;;5033113;28;20049;-63
2022/11/11 08:10:39;;;;;;;8.27;2.75;;;;;;;;;;5033145;28;20050;-62
2022/11/11 08:13:40;;;;;;;6.53;2.60;;;;;;;;;;5033518;28;20045;-63
2022/11/11 08:16:28;;;;;;;6.22;2.60;;;;;;;;;;5033308;28;20053;-63
2022/11/11 08:19:17;;;;;;;6.38;2.97;;;;;;;;;;5017335;28;20050;-63
2022/11/11 08:22:06;;;;;;;5.00;2.47;;;;;;;;;;5033277;28;20058;-63
2022/11/11 08:24:54;;;;;;;7.55;3.20;;;;;;;;;;5033022;28;20061;-62
2022/11/11 08:27:58;;;;;;;6.05;2.78;;;;;;;;;;5032982;28;20053;-63
2022/11/11 08:30:47;;;;;;;6.30;2.55;;;;;;;;;;5032773;28;20049;-63
2022/11/11 08:33:36;;;;;;;5.95;3.33;;;;;;;;;;5002978;28;20046;-63
2022/11/11 08:36:25;;;;;;;9.52;3.17;;;;;;;;;;5032541;28;20050;-62
2022/11/11 08:39:13;;;;;;;5.95;2.78;;;;;;;;;;5032554;28;20053;-63
2022/11/11 08:42:02;;;;;;;6.15;2.95;;;;;;;;;;5002947;28;20053;-63
2022/11/11 08:44:51;;;;;;;5.10;2.53;;;;;;;;;;5058235;28;20509;-63
2022/11/11 08:47:39;;;;;;;7.32;3.00;;;;;;;;;;5032438;28;20045;-62
2022/11/11 08:50:28;;;;;;;9.43;2.92;;;;;;;;;;5031505;28;20041;-63
2022/11/11 08:53:16;;;;;;;6.82;3.33;;;;;;;;;;5032302;28;20046;-62
2022/11/11 08:56:06;;;;;;;6.13;3.17;;;;;;;;;;5032228;28;20054;-63
2022/11/11 08:58:54;;;;;;;6.07;3.28;;;;;;;;;;5049901;28;20485;-63
2022/11/11 09:01:42;;;;;;;7.13;3.15;;;;;;;;;;5049366;28;20057;-63
2022/11/11 09:04:31;;;;;;;9.60;3.20;;;;;;;;;;5035930;28;20053;-63
2022/11/11 09:07:40;;;;;;;4.82;2.85;;;;;;;;;;5050098;28;20413;-63
2022/11/11 09:10:28;;;;;;;5.18;2.65;;;;;;;;;;5049827;28;20045;-63
2022/11/11 09:13:16;;;;;;;7.45;2.78;;;;;;;;;;5049651;28;20080;-63
2022/11/11 09:16:05;;;;;;;9.30;2.92;;;;;;;;;;5021697;28;20085;-63
2022/11/11 09:18:54;;;;;;;6.10;2.58;;;;;;;;;;5049722;28;20045;-62
2022/11/11 09:21:43;;;;;;;5.60;2.80;;;;;;;;;;5021119;28;20053;-63
2022/11/11 09:24:31;;;;;;;6.85;3.20;;;;;;;;;;5049552;28;20041;-63
2022/11/11 09:27:20;;;;;;;5.57;3.00;;;;;;;;;;5049599;28;20045;-63
2022/11/11 09:30:10;;;;;;;5.97;2.97;;;;;;;;;;5049360;28;20768;-62
2022/11/11 09:33:03;;;;;;;5.90;3.08;;;;;;;;;;5007154;28;20049;-63
2022/11/11 09:35:51;;;;;;;7.15;3.40;;;;;;;;;;5043054;28;20053;-63
2022/11/11 09:38:40;;;;;;;8.98;3.95;;;;;;;;;;5031837;28;20045;-63
2022/11/11 09:41:44;;;;;;;10.27;3.53;;;;;;;;;;5031388;28;20050;-63
2022/11/11 09:44:41;;;;;;;7.65;3.83;;;;;;;;;;5032164;28;20497;-63
2022/11/11 09:47:50;;;;;;;11.77;4.28;;;;;;;;;;5015885;28;20046;-63
2022/11/11 09:50:53;;;;;;;9.07;3.30;;;;;;;;;;5032185;28;20053;-63
2022/11/11 09:53:48;;;;;;;8.95;3.20;;;;;;;;;;5001955;28;20050;-63
2022/11/11 09:56:38;;;;;;;12.45;3.50;;;;;;;;;;5030551;28;20049;-63
2022/11/11 09:59:49;;;;;;;11.02;3.83;;;;;;;;;;5031411;28;20053;-64
2022/11/11 10:02:54;;;;;;;10.73;3.70;;;;;;;;;;5018088;28;20420;-63
2022/11/11 10:05:54;;;;;;;11.60;4.53;;;;;;;;;;5035606;28;20045;-63
2022/11/11 10:08:49;;;;;;;17.70;4.93;;;;;;;;;;5034138;28;20049;-63
2022/11/11 10:12:02;;;;;;;16.40;5.93;;;;;;;;;;5019723;28;20061;-63
2022/11/11 10:14:51;;;;;;;13.55;6.18;;;;;;;;;;5034382;28;20456;-63
2022/11/11 10:17:53;;;;;;;17.08;6.13;;;;;;;;;;5005565;28;20494;-63
2022/11/11 10:20:47;;;;;;;16.75;5.55;;;;;;;;;;5035316;28;20053;-63
2022/11/11 10:23:37;;;;;;;12.07;5.45;;;;;;;;;;5035164;28;20053;-63
2022/11/11 10:26:39;;;;;;;15.32;4.75;;;;;;;;;;5035202;28;20049;-63
2022/11/11 10:29:39;;;;;;;10.13;4.55;;;;;;;;;;5043832;28;20060;-63
2022/11/11 10:32:33;;;;;;;11.82;4.20;;;;;;;;;;5044484;28;20115;-63
2022/11/11 10:35:32;;;;;;;10.48;4.65;;;;;;;;;;5072274;28;20064;-63
2022/11/11 10:38:46;;;;;;;18.65;4.68;;;;;;;;;;5044868;28;20048;-64
2022/11/11 10:41:47;;;;;;;19.25;7.15;;;;;;;;;;5072636;28;20057;-64
2022/11/11 10:44:36;;;;;;;34.88;13.35;;;;;;;;;;5072422;28;20460;-63
2022/11/11 10:47:44;;;;;;;24.10;10.45;;;;;;;;;;5072208;28;20048;-63
2022/11/11 10:50:43;;;;;;;14.65;6.00;;;;;;;;;;5043558;28;20192;-63
2022/11/11 10:53:49;;;;;;;15.00;5.82;;;;;;;;;;5043548;28;20057;-63
2022/11/11 10:56:43;;;;;;;8.90;3.97;;;;;;;;;;5071955;28;20516;-62
2022/11/11 10:59:44;;;;;;;9.50;3.97;;;;;;;;;;5043552;28;20536;-63
2022/11/11 11:02:45;;;;;;;14.75;4.18;;;;;;;;;;5072117;28;20080;-62
2022/11/11 11:05:38;;;;;;;11.95;3.55;;;;;;;;;;5028663;28;20079;-62
2022/11/11 11:08:35;;;;;;;11.50;4.20;;;;;;;;;;5057809;28;20053;-62
2022/11/11 11:11:39;;;;;;;12.93;4.00;;;;;;;;;;5054524;28;20045;-63
2022/11/11 11:14:41;;;;;;;8.18;3.42;;;;;;;;;;5050671;28;20053;-62
2022/11/11 11:17:48;;;;;;;10.00;4.22;;;;;;;;;;5053970;28;20045;-62
2022/11/11 11:20:37;;;;;;;9.85;3.92;;;;;;;;;;5053377;28;20041;-63
2022/11/11 11:23:36;;;;;;;7.10;4.10;;;;;;;;;;5037860;28;20057;-63
2022/11/11 11:26:41;;;;;;;13.05;3.40;;;;;;;;;;5053532;28;20052;-62
2022/11/11 11:29:42;;;;;;;7.72;3.53;;;;;;;;;;5054012;28;20045;-63
2022/11/11 11:32:32;;;;;;;12.30;3.70;;;;;;;;;;5054132;28;20045;-63
2022/11/11 11:35:38;;;;;;;6.78;3.08;;;;;;;;;;5053215;28;20045;-63
2022/11/11 11:38:51;;;;;;;8.93;3.00;;;;;;;;;;5023953;28;20417;-63
2022/11/11 11:41:50;;;;;;;7.28;2.92;;;;;;;;;;5053804;28;20049;-63
2022/11/11 11:44:39;;;;;;;12.80;4.03;;;;;;;;;;5023958;28;20061;-63
2022/11/11 11:47:50;;;;;;;9.35;3.03;;;;;;;;;;5053502;28;20056;-62
2022/11/11 11:51:09;;;;;;;13.90;6.60;;;;;;;;;;5053908;28;20053;-63
2022/11/11 11:54:24;;;;;;;8.45;3.85;;;;;;;;;;5053636;28;20041;-63
2022/11/11 11:57:36;;;;;;;22.83;10.80;;;;;;;;;;5030768;28;20054;-63
2022/11/11 12:01:04;;;;;;;7.40;3.10;;;;;;;;;;5031149;28;20405;-62
2022/11/11 12:04:19;;;;;;;9.77;3.67;;;;;;;;;;4991893;28;20055;-63
2022/11/11 12:07:21;;;;;;;6.28;3.63;;;;;;;;;;4991497;28;20058;-63
2022/11/11 12:10:19;;;;;;;5.25;2.80;;;;;;;;;;4991476;28;20072;-63
2022/11/11 12:13:37;;;;;;;8.38;4.10;;;;;;;;;;4991441;28;20120;-64
2022/11/11 12:16:34;;;;;;;11.07;4.35;;;;;;;;;;4933363;29;20060;-63
2022/11/11 12:19:32;;;;;;;12.98;4.63;;;;;;;;;;4933528;29;20055;-63
2022/11/11 12:22:45;;;;;;;14.85;3.40;;;;;;;;;;4933135;29;20556;-63
2022/11/11 12:26:02;;;;;;;10.85;5.45;;;;;;;;;;4933121;29;20051;-63
2022/11/11 12:29:17;;;;;;;10.90;4.70;;;;;;;;;;4933029;29;20051;-63
2022/11/11 12:32:18;;;;;;;13.23;4.90;;;;;;;;;;4933147;29;20060;-63
2022/11/11 12:35:25;;;;;;;8.07;4.38;;;;;;;;;;4950298;29;20110;-63
2022/11/11 12:38:19;;;;;;;16.85;7.20;;;;;;;;;;4954500;28;20547;-63
2022/11/11 12:41:30;;;;;;;36.53;15.10;;;;;;;;;;4971573;28;20462;-63
2022/11/11 12:44:28;;;;;;;14.00;6.85;;;;;;;;;;4951845;28;20085;-62
2022/11/11 12:47:57;;;;;;;19.13;8.27;;;;;;;;;;4951813;28;20055;-63
2022/11/11 12:50:49;;;;;;;7.03;3.38;;;;;;;;;;4971183;28;20510;-63
2022/11/11 12:53:54;;;;;;;20.08;6.95;;;;;;;;;;4971753;28;20122;-62
2022/11/11 12:56:46;;;;;;;8.32;4.85;;;;;;;;;;4971288;28;20043;-63
2022/11/11 12:59:53;;;;;;;7.38;3.92;;;;;;;;;;4957562;28;21198;-63
2022/11/11 13:03:19;;;;;;;8.43;3.63;;;;;;;;;;4970947;28;20047;-64
2022/11/11 13:06:45;;;;;;;7.47;4.43;;;;;;;;;;4951515;28;20051;-63
2022/11/11 13:10:04;;;;;;;9.18;4.78;;;;;;;;;;4951779;28;20047;-63
2022/11/11 13:13:31;;;;;;;10.35;5.10;;;;;;;;;;4932664;29;20047;-64
2022/11/11 13:16:23;;;;;;;10.52;5.75;;;;;;;;;;4932555;29;20071;-63
2022/11/11 13:19:35;;;;;;;14.10;4.55;;;;;;;;;;4905213;29;20052;-62
2022/11/11 13:22:37;;;;;;;11.02;5.35;;;;;;;;;;4883498;29;20402;-63
2022/11/11 13:25:30;;;;;;;10.48;5.25;;;;;;;;;;4881839;29;20064;-64
2022/11/11 13:28:41;;;;;;;11.27;4.93;;;;;;;;;;4913799;29;20056;-65
2022/11/11 13:31:40;;;;;;;8.57;5.00;;;;;;;;;;4913774;29;20048;-63
2022/11/11 13:34:35;;;;;;;12.27;5.57;;;;;;;;;;4913485;29;20498;-62
2022/11/11 13:37:29;;;;;;;12.18;5.88;;;;;;;;;;4912692;29;20052;-63
2022/11/11 13:40:30;;;;;;;10.77;5.97;;;;;;;;;;4913517;29;20048;-63
2022/11/11 13:43:28;;;;;;;10.32;5.18;;;;;;;;;;4959901;28;20058;-63
2022/11/11 13:46:44;;;;;;;11.63;4.90;;;;;;;;;;4990450;28;20050;-62
2022/11/11 13:50:05;;;;;;;12.32;5.18;;;;;;;;;;5012527;28;20413;-62
2022/11/11 13:53:05;;;;;;;13.82;8.80;;;;;;;;;;5051875;28;20045;-62
2022/11/11 13:56:02;;;;;;;12.90;7.30;;;;;;;;;;5051497;28;20041;-62
2022/11/11 13:58:52;;;;;;;9.85;5.15;;;;;;;;;;5051915;28;20049;-63
2022/11/11 14:01:40;;;;;;;11.85;5.10;;;;;;;;;;5051574;28;20045;-63
2022/11/11 14:04:31;;;;;;;9.23;4.47;;;;;;;;;;5051455;28;20041;-62
2022/11/11 14:07:47;;;;;;;12.52;5.25;;;;;;;;;;5051558;28;20053;-62
2022/11/11 14:10:36;;;;;;;13.25;4.63;;;;;;;;;;5051577;28;20044;-62
2022/11/11 14:13:33;;;;;;;8.73;4.47;;;;;;;;;;5050783;28;20493;-63
2022/11/11 14:16:34;;;;;;;10.45;5.05;;;;;;;;;;5051314;28;20045;-62
2022/11/11 14:19:24;;;;;;;10.23;5.53;;;;;;;;;;5051221;28;20049;-62
2022/11/11 14:22:29;;;;;;;7.95;4.35;;;;;;;;;;5063436;28;20052;-61
2022/11/11 14:25:25;;;;;;;7.88;4.47;;;;;;;;;;5021262;28;20057;-62
2022/11/11 14:28:27;;;;;;;8.48;4.38;;;;;;;;;;5051263;28;20049;-62
2022/11/11 14:31:15;;;;;;;10.13;5.07;;;;;;;;;;5050800;28;20049;-63
2022/11/11 14:34:34;;;;;;;9.02;4.82;;;;;;;;;;5051244;28;20049;-63
2022/11/11 14:37:31;;;;;;;6.97;3.65;;;;;;;;;;5050213;28;20044;-62
2022/11/11 14:40:32;;;;;;;7.63;4.18;;;;;;;;;;5051274;28;20048;-63
2022/11/11 14:43:39;;;;;;;12.50;4.47;;;;;;;;;;5050994;28;20045;-62
2022/11/11 14:46:28;;;;;;;12.15;5.32;;;;;;;;;;5051184;28;20053;-63
2022/11/11 14:49:46;;;;;;;12.13;4.90;;;;;;;;;;5071599;28;20497;-62
2022/11/11 14:52:46;;;;;;;14.75;4.82;;;;;;;;;;5072752;28;20048;-63
2022/11/11 14:55:37;;;;;;;11.13;4.65;;;;;;;;;;5029612;28;20053;-63
2022/11/11 14:58:33;;;;;;;10.38;4.85;;;;;;;;;;5043789;28;20424;-63
2022/11/11 15:01:23;;;;;;;9.18;4.55;;;;;;;;;;5029439;28;20054;-62
2022/11/11 15:04:12;;;;;;;10.65;4.47;;;;;;;;;;5072099;28;20052;-63
2022/11/11 15:07:02;;;;;;;10.15;4.97;;;;;;;;;;5029831;28;20417;-63
2022/11/11 15:10:42;;;;;;;10.95;4.95;;;;;;;;;;5071920;28;20068;-63
2022/11/11 15:13:54;;;;;;;9.05;4.45;;;;;;;;;;4953734;28;20663;-62
2022/11/11 15:17:21;;;;;;;11.88;4.93;;;;;;;;;;4939650;29;20415;-63
2022/11/11 15:20:46;;;;;;;15.50;4.80;;;;;;;;;;4896188;29;20060;-63
2022/11/11 15:23:58;;;;;;;11.50;4.68;;;;;;;;;;4896682;29;20056;-62
2022/11/11 15:27:19;;;;;;;10.10;5.13;;;;;;;;;;4869861;29;20052;-62
2022/11/11 15:30:18;;;;;;;8.77;4.30;;;;;;;;;;4896543;29;20052;-62
2022/11/11 15:33:34;;;;;;;8.07;3.95;;;;;;;;;;4896697;29;20057;-64
2022/11/11 15:37:14;;;;;;;9.73;4.55;;;;;;;;;;4896515;29;20056;-62
2022/11/11 15:40:05;;;;;;;9.98;5.20;;;;;;;;;;4858815;29;20058;-62
2022/11/11 15:42:54;;;;;;;10.30;5.45;;;;;;;;;;4845567;29;20057;-62
2022/11/11 15:45:44;;;;;;;13.68;5.50;;;;;;;;;;4858955;29;20054;-62
2022/11/11 15:48:39;;;;;;;14.32;5.38;;;;;;;;;;4852598;29;20052;-63
2022/11/11 15:51:32;;;;;;;10.68;5.38;;;;;;;;;;4924051;29;20059;-62
2022/11/11 15:54:22;;;;;;;10.27;4.95;;;;;;;;;;4923161;28;20047;-62
2022/11/11 15:57:29;;;;;;;10.02;4.85;;;;;;;;;;4974399;28;20073;-61
2022/11/11 16:00:24;;;;;;;10.30;4.63;;;;;;;;;;5010457;28;20049;-62
2022/11/11 16:03:20;;;;;;;10.57;5.32;;;;;;;;;;4997899;28;20065;-63
2022/11/11 16:06:13;;;;;;;8.30;4.50;;;;;;;;;;5011408;28;20498;-62
2022/11/11 16:09:03;;;;;;;10.90;4.93;;;;;;;;;;5010965;28;20494;-62
2022/11/11 16:11:54;;;;;;;13.65;4.55;;;;;;;;;;5011267;28;20049;-62
2022/11/11 16:14:45;;;;;;;8.15;4.90;;;;;;;;;;5018761;28;20544;-62
2022/11/11 16:17:38;;;;;;;11.57;5.07;;;;;;;;;;5022776;28;20049;-63
2022/11/11 16:20:48;;;;;;;8.55;4.57;;;;;;;;;;5025784;28;20044;-63
2022/11/11 16:23:39;;;;;;;13.63;4.38;;;;;;;;;;5059852;28;20048;-62
2022/11/11 16:26:27;;;;;;;10.10;4.50;;;;;;;;;;5024957;28;20057;-63
2022/11/11 16:29:16;;;;;;;9.65;4.57;;;;;;;;;;5031868;28;20052;-63
2022/11/11 16:32:23;;;;;;;9.35;4.25;;;;;;;;;;5017579;28;20048;-64
2022/11/11 16:35:41;;;;;;;11.40;4.75;;;;;;;;;;5040147;28;20049;-62
2022/11/11 16:38:34;;;;;;;7.25;4.03;;;;;;;;;;4960611;28;20059;-64
2022/11/11 16:41:30;;;;;;;8.13;4.75;;;;;;;;;;4959802;28;20051;-61
2022/11/11 16:44:50;;;;;;;12.10;5.07;;;;;;;;;;4920651;28;20054;-61
2022/11/11 16:47:45;;;;;;;13.77;4.75;;;;;;;;;;4903955;29;20052;-61
2022/11/11 16:50:50;;;;;;;9.20;5.18;;;;;;;;;;4903904;29;20048;-61
2022/11/11 16:53:47;;;;;;;10.73;4.68;;;;;;;;;;4903992;29;20072;-61
2022/11/11 16:56:37;;;;;;;8.60;4.25;;;;;;;;;;4902587;29;20076;-61
2022/11/11 16:59:35;;;;;;;8.13;3.30;;;;;;;;;;4899697;29;20064;-62
2022/11/11 17:02:24;;;;;;;11.43;5.60;;;;;;;;;;4893153;29;20052;-61
2022/11/11 17:05:13;;;;;;;10.18;4.88;;;;;;;;;;4907274;29;20049;-62
2022/11/11 17:08:35;;;;;;;11.18;4.57;;;;;;;;;;4894660;29;20099;-62
2022/11/11 17:11:38;;;;;;;14.57;5.68;;;;;;;;;;4896637;29;20517;-62
2022/11/11 17:14:29;;;;;;;10.38;4.80;;;;;;;;;;4934261;28;20055;-63
2022/11/11 17:17:18;;;;;;;10.90;4.75;;;;;;;;;;4990217;28;20066;-62
2022/11/11 17:20:10;;;;;;;9.60;5.32;;;;;;;;;;4988733;28;20441;-62
2022/11/11 17:23:00;;;;;;;9.95;4.63;;;;;;;;;;4976579;28;20058;-62
2022/11/11 17:25:53;;;;;;;10.07;5.30;;;;;;;;;;5035086;28;20057;-62
2022/11/11 17:28:42;;;;;;;11.13;4.97;;;;;;;;;;5051465;28;20500;-64
2022/11/11 17:31:31;;;;;;;11.10;4.85;;;;;;;;;;5051377;28;20048;-63
2022/11/11 17:34:19;;;;;;;14.20;6.95;;;;;;;;;;5050664;28;20053;-62
2022/11/11 17:37:08;;;;;;;11.60;5.57;;;;;;;;;;5035590;28;20049;-65
2022/11/11 17:39:56;;;;;;;10.18;5.15;;;;;;;;;;5051131;28;20501;-62
2022/11/11 17:42:45;;;;;;;12.55;5.47;;;;;;;;;;5029030;28;20053;-64
2022/11/11 17:45:34;;;;;;;11.82;6.03;;;;;;;;;;5031835;28;20049;-63
2022/11/11 17:48:23;;;;;;;11.15;5.93;;;;;;;;;;5048756;28;20524;-66
2022/11/11 17:51:11;;;;;;;9.52;5.07;;;;;;;;;;5049972;28;20049;-68
2022/11/11 17:54:00;;;;;;;12.40;6.07;;;;;;;;;;5051497;28;20069;-67
2022/11/11 17:56:50;;;;;;;12.75;5.40;;;;;;;;;;5051666;28;20049;-66
2022/11/11 17:59:38;;;;;;;12.02;5.65;;;;;;;;;;5051391;28;20400;-63
2022/11/11 18:02:26;;;;;;;11.98;6.07;;;;;;;;;;5049288;28;20061;-64
2022/11/11 18:05:15;;;;;;;14.98;6.30;;;;;;;;;;5051308;28;20497;-62
2022/11/11 18:08:04;;;;;;;10.02;5.38;;;;;;;;;;5051459;28;20056;-62
2022/11/11 18:10:57;;;;;;;11.10;5.60;;;;;;;;;;5035105;28;20053;-62
2022/11/11 18:13:46;;;;;;;9.20;5.10;;;;;;;;;;5049029;28;20060;-62
2022/11/11 18:16:34;;;;;;;10.55;4.72;;;;;;;;;;5051004;28;20413;-62
2022/11/11 18:19:23;;;;;;;11.23;5.40;;;;;;;;;;5021112;28;20049;-62
2022/11/11 18:22:12;;;;;;;13.57;5.10;;;;;;;;;;5035355;28;20053;-64
2022/11/11 18:25:00;;;;;;;10.05;4.65;;;;;;;;;;5054536;28;20053;-61
2022/11/11 18:27:52;;;;;;;11.43;4.50;;;;;;;;;;5054413;28;20053;-64
2022/11/11 18:30:41;;;;;;;7.82;4.32;;;;;;;;;;5038056;28;20060;-63